Time;durP1;ratioP1;P1;durP2;ratioP2;P2;SDS_P1;SDS_P2;PMS_P1;PMS_P2;Temp;Humidity;BMP_temperature;BMP_pressure;BME280_temperature;BME280_humidity;BME280_pressure;Samples;Min_cycle;Max_cycle;Signal;HPM_P1;HPM_P2
2023/07/13 00:00:04;;;;;;;3.87;3.17;;;19.10;99.90;;;;;;5083289;28;20168;-70
2023/07/13 00:02:30;;;;;;;5.60;3.13;;;19.00;99.90;;;;;;5084181;28;20667;-69
2023/07/13 00:04:55;;;;;;;5.33;3.70;;;19.00;99.90;;;;;;5081455;28;20492;-69
2023/07/13 00:07:21;;;;;;;6.10;3.70;;;18.90;99.90;;;;;;5084497;28;20194;-68
2023/07/13 00:09:47;;;;;;;5.00;3.07;;;18.90;99.90;;;;;;5081910;28;20194;-69
2023/07/13 00:12:27;;;;;;;4.47;3.00;;;19.00;99.90;;;;;;5074654;28;20661;-70
2023/07/13 00:14:53;;;;;;;3.93;3.27;;;18.90;99.90;;;;;;5077973;28;20219;-70
2023/07/13 00:17:18;;;;;;;4.20;2.77;;;18.90;99.90;;;;;;5085903;28;20409;-69
2023/07/13 00:19:45;;;;;;;4.33;3.20;;;18.80;99.90;;;;;;5081759;28;20651;-68
2023/07/13 00:22:11;;;;;;;2.90;2.63;;;18.80;99.90;;;;;;5078574;28;20242;-68
2023/07/13 00:24:41;;;;;;;3.90;3.47;;;18.80;99.90;;;;;;5082240;28;20888;-68
2023/07/13 00:27:10;;;;;;;7.43;3.23;;;18.80;99.90;;;;;;5080322;28;20180;-68
2023/07/13 00:29:37;;;;;;;5.60;3.03;;;18.80;99.90;;;;;;5086871;28;20417;-68
2023/07/13 00:32:04;;;;;;;5.20;2.97;;;18.70;99.90;;;;;;5080708;28;20453;-69
2023/07/13 00:34:30;;;;;;;4.23;2.90;;;18.70;99.90;;;;;;5087303;28;20437;-69
2023/07/13 00:36:57;;;;;;;3.83;3.37;;;18.70;99.90;;;;;;5069157;28;20539;-68
2023/07/13 00:39:22;;;;;;;5.07;3.47;;;18.70;99.90;;;;;;5069094;28;20437;-69
2023/07/13 00:41:48;;;;;;;5.70;2.80;;;18.70;99.90;;;;;;5062071;28;20779;-69
2023/07/13 00:44:15;;;;;;;2.87;2.57;;;18.60;99.90;;;;;;5061442;28;20251;-69
2023/07/13 00:46:41;;;;;;;5.87;3.80;;;18.60;99.90;;;;;;5066243;28;20984;-69
2023/07/13 00:49:20;;;;;;;6.83;3.43;;;18.50;99.90;;;;;;5084663;28;20422;-69
2023/07/13 00:51:54;;;;;;;3.50;2.90;;;18.50;99.90;;;;;;5076436;28;20465;-68
2023/07/13 00:54:29;;;;;;;5.23;2.73;;;18.40;99.90;;;;;;5085833;28;20419;-70
2023/07/13 00:57:00;;;;;;;3.10;2.73;;;18.40;99.90;;;;;;5070481;28;20524;-69
2023/07/13 00:59:26;;;;;;;3.53;3.17;;;18.40;99.90;;;;;;5073828;28;20590;-69
2023/07/13 01:01:52;;;;;;;4.07;2.90;;;18.30;99.90;;;;;;5082934;28;20531;-69
2023/07/13 01:04:18;;;;;;;4.23;2.83;;;18.20;99.90;;;;;;5083168;28;20529;-70
2023/07/13 01:06:44;;;;;;;3.90;3.17;;;18.20;99.90;;;;;;5064105;28;20183;-69
2023/07/13 01:09:10;;;;;;;5.67;2.90;;;18.20;99.90;;;;;;5076962;28;20169;-69
2023/07/13 01:11:36;;;;;;;4.40;2.53;;;18.30;99.90;;;;;;5083106;28;20466;-69
2023/07/13 01:14:03;;;;;;;6.43;3.50;;;18.20;99.90;;;;;;5079031;28;20849;-70
2023/07/13 01:16:32;;;;;;;3.60;2.83;;;18.20;99.90;;;;;;5072859;28;20471;-69
2023/07/13 01:18:58;;;;;;;3.93;3.40;;;18.20;99.90;;;;;;5059235;28;20502;-70
2023/07/13 01:21:25;;;;;;;3.40;3.10;;;18.10;99.90;;;;;;5081508;28;20457;-69
2023/07/13 01:23:51;;;;;;;4.80;3.50;;;18.20;99.90;;;;;;5063116;28;20438;-68
2023/07/13 01:26:17;;;;;;;6.57;2.93;;;18.20;99.90;;;;;;5082691;28;20418;-68
2023/07/13 01:28:43;;;;;;;7.20;2.70;;;18.20;99.90;;;;;;5080754;28;20179;-69
2023/07/13 01:31:10;;;;;;;3.60;3.30;;;18.10;99.90;;;;;;5071916;28;20468;-68
2023/07/13 01:33:39;;;;;;;3.30;3.10;;;18.10;99.90;;;;;;5068974;28;20422;-70
2023/07/13 01:36:06;;;;;;;3.90;2.73;;;18.00;99.90;;;;;;5080627;28;20852;-68
2023/07/13 01:38:33;;;;;;;3.90;2.93;;;18.10;99.90;;;;;;5061948;28;20414;-68
2023/07/13 01:40:59;;;;;;;3.27;2.63;;;18.00;99.90;;;;;;5078857;28;20779;-69
2023/07/13 01:43:25;;;;;;;4.33;2.90;;;18.00;99.90;;;;;;5080742;28;20410;-69
2023/07/13 01:45:50;;;;;;;3.57;3.13;;;18.00;99.90;;;;;;5061809;28;20514;-69
2023/07/13 01:48:16;;;;;;;3.63;2.53;;;18.00;99.90;;;;;;5082946;28;20444;-69
2023/07/13 01:50:42;;;;;;;5.37;2.97;;;17.90;99.90;;;;;;5076372;28;20234;-69
2023/07/13 01:53:09;;;;;;;4.53;3.10;;;17.90;99.90;;;;;;5081524;28;20268;-69
2023/07/13 01:55:35;;;;;;;5.27;3.27;;;17.90;99.90;;;;;;5081949;28;20457;-69
2023/07/13 01:58:01;;;;;;;3.00;2.80;;;18.00;99.90;;;;;;5079086;28;20780;-70
2023/07/13 02:00:26;;;;;;;5.10;2.70;;;18.00;99.90;;;;;;5086470;28;20404;-70
2023/07/13 02:02:52;;;;;;;5.63;3.43;;;17.90;99.90;;;;;;5066661;28;20640;-69
2023/07/13 02:05:18;;;;;;;4.37;3.10;;;17.90;99.90;;;;;;5079735;28;20274;-68
2023/07/13 02:07:44;;;;;;;3.40;2.90;;;17.90;99.90;;;;;;5079574;28;20191;-68
2023/07/13 02:10:11;;;;;;;4.60;3.33;;;17.90;99.90;;;;;;5086692;28;20432;-68
2023/07/13 02:12:37;;;;;;;4.70;3.07;;;17.90;99.90;;;;;;5085370;28;20527;-68
2023/07/13 02:15:04;;;;;;;4.23;3.07;;;17.90;99.90;;;;;;5086477;28;20772;-70
2023/07/13 02:17:30;;;;;;;4.13;2.93;;;17.90;99.90;;;;;;5086722;28;20442;-68
2023/07/13 02:19:55;;;;;;;3.43;3.13;;;17.90;99.90;;;;;;5086226;28;20452;-69
2023/07/13 02:22:22;;;;;;;5.23;2.87;;;18.00;99.90;;;;;;5078196;28;20248;-69
2023/07/13 02:24:48;;;;;;;6.63;3.13;;;18.00;99.90;;;;;;5078439;28;20652;-69
2023/07/13 02:27:13;;;;;;;3.60;3.07;;;18.00;99.90;;;;;;5086091;28;20445;-70
2023/07/13 02:29:39;;;;;;;6.40;3.43;;;17.90;99.90;;;;;;5067072;28;20419;-69
2023/07/13 02:32:05;;;;;;;3.03;2.73;;;18.00;99.90;;;;;;5085469;28;20201;-70
2023/07/13 02:34:31;;;;;;;3.63;3.33;;;18.00;99.90;;;;;;5085059;28;20180;-69
2023/07/13 02:36:56;;;;;;;4.77;2.80;;;18.10;99.90;;;;;;5083500;28;20543;-70
2023/07/13 02:39:22;;;;;;;4.03;3.63;;;18.00;99.90;;;;;;5086359;28;20553;-70
2023/07/13 02:41:48;;;;;;;3.87;3.03;;;17.90;99.90;;;;;;5084109;28;20182;-68
2023/07/13 02:44:14;;;;;;;4.00;3.40;;;17.90;99.90;;;;;;5086032;28;20770;-69
2023/07/13 02:46:40;;;;;;;3.17;2.93;;;17.80;99.90;;;;;;5085140;28;20256;-69
2023/07/13 02:49:06;;;;;;;3.53;2.90;;;17.80;99.90;;;;;;5064385;28;21177;-69
2023/07/13 02:51:33;;;;;;;3.37;3.07;;;17.70;99.90;;;;;;5053757;28;20220;-69
2023/07/13 02:54:04;;;;;;;4.57;3.43;;;17.70;99.90;;;;;;5080289;28;20818;-70
2023/07/13 02:56:31;;;;;;;4.07;3.30;;;17.70;99.90;;;;;;5064023;28;20523;-69
2023/07/13 02:58:58;;;;;;;6.70;3.30;;;17.70;99.90;;;;;;5076191;28;20768;-69
2023/07/13 03:01:24;;;;;;;6.73;2.53;;;17.80;99.90;;;;;;5064010;28;20475;-69
2023/07/13 03:03:51;;;;;;;5.90;3.10;;;17.80;99.90;;;;;;5071201;28;20406;-68
2023/07/13 03:06:18;;;;;;;4.00;3.20;;;17.70;99.90;;;;;;5082282;28;20411;-69
2023/07/13 03:08:44;;;;;;;6.73;3.50;;;17.70;99.90;;;;;;5060808;28;20482;-69
2023/07/13 03:11:14;;;;;;;4.70;3.90;;;17.80;99.90;;;;;;5042207;28;20462;-68
2023/07/13 03:13:41;;;;;;;4.50;3.63;;;17.80;99.90;;;;;;5081033;28;20432;-69
2023/07/13 03:16:08;;;;;;;6.20;3.90;;;17.70;99.90;;;;;;5086072;28;20468;-68
2023/07/13 03:18:34;;;;;;;3.70;3.30;;;17.80;99.90;;;;;;5082333;28;20405;-70
2023/07/13 03:20:59;;;;;;;4.03;3.63;;;17.90;99.90;;;;;;5088714;28;21060;-70
2023/07/13 03:23:25;;;;;;;3.73;3.43;;;17.80;99.90;;;;;;5063810;28;20502;-68
2023/07/13 03:26:19;;;;;;;4.03;3.20;;;17.80;99.90;;;;;;5090092;28;20177;-70
2023/07/13 03:28:46;;;;;;;5.33;3.30;;;17.80;99.90;;;;;;5057581;28;20200;-68
2023/07/13 03:31:20;;;;;;;4.87;4.00;;;17.90;99.90;;;;;;5055797;28;20538;-69
2023/07/13 03:33:46;;;;;;;5.10;4.40;;;17.90;99.90;;;;;;5058957;28;21068;-69
2023/07/13 03:36:20;;;;;;;4.70;3.50;;;18.00;99.90;;;;;;5083487;28;20454;-69
2023/07/13 03:38:48;;;;;;;7.30;2.97;;;18.00;99.90;;;;;;5083763;28;20412;-69
2023/07/13 03:41:15;;;;;;;3.97;3.43;;;18.00;99.90;;;;;;5066872;28;20434;-69
2023/07/13 03:43:41;;;;;;;3.30;3.00;;;18.00;99.90;;;;;;5084503;28;20416;-69
2023/07/13 03:46:06;;;;;;;5.10;3.20;;;18.10;99.90;;;;;;5085374;28;20397;-69
2023/07/13 03:48:32;;;;;;;3.97;3.40;;;18.10;99.90;;;;;;5080583;28;20245;-69
2023/07/13 03:50:57;;;;;;;3.93;3.10;;;18.00;99.90;;;;;;5080752;28;20668;-69
2023/07/13 03:53:23;;;;;;;3.63;2.63;;;18.00;99.90;;;;;;5075661;28;20173;-69
2023/07/13 03:55:48;;;;;;;3.50;3.20;;;18.00;99.90;;;;;;5081931;28;20244;-69
2023/07/13 03:58:30;;;;;;;4.40;3.00;;;18.00;99.90;;;;;;5080456;28;20233;-69
2023/07/13 04:00:57;;;;;;;5.27;3.17;;;18.00;99.90;;;;;;5079587;28;20596;-68
2023/07/13 04:03:23;;;;;;;4.10;3.77;;;18.00;99.90;;;;;;5056010;28;20459;-69
2023/07/13 04:05:49;;;;;;;3.40;2.53;;;18.00;99.90;;;;;;5057698;28;20437;-69
2023/07/13 04:08:14;;;;;;;3.00;2.70;;;18.10;99.90;;;;;;5085018;28;20485;-69
2023/07/13 04:10:40;;;;;;;5.73;3.30;;;18.10;99.90;;;;;;5082704;28;20181;-69
2023/07/13 04:13:06;;;;;;;6.03;3.93;;;18.20;99.90;;;;;;5075618;28;20229;-69
2023/07/13 04:15:32;;;;;;;4.10;3.10;;;18.20;99.90;;;;;;5086977;28;20201;-69
2023/07/13 04:17:58;;;;;;;6.47;3.03;;;18.30;99.90;;;;;;5077091;28;20447;-68
2023/07/13 04:20:26;;;;;;;4.00;3.50;;;18.30;99.90;;;;;;5086792;28;20436;-69
2023/07/13 04:22:55;;;;;;;3.43;3.13;;;18.40;99.90;;;;;;5076300;28;20192;-69
2023/07/13 04:25:21;;;;;;;3.60;2.80;;;18.50;99.90;;;;;;5062337;28;20473;-68
2023/07/13 04:27:47;;;;;;;3.17;2.87;;;18.40;99.90;;;;;;5078802;28;20420;-69
2023/07/13 04:30:13;;;;;;;3.50;2.90;;;18.90;99.90;;;;;;5061797;28;20439;-68
2023/07/13 04:32:38;;;;;;;3.60;2.70;;;19.30;99.90;;;;;;5086650;28;20197;-68
2023/07/13 04:35:04;;;;;;;6.40;2.80;;;19.90;99.90;;;;;;5075647;28;20236;-69
2023/07/13 04:37:30;;;;;;;4.63;3.23;;;20.10;99.90;;;;;;5086656;28;20254;-68
2023/07/13 04:39:56;;;;;;;3.50;3.20;;;20.50;99.90;;;;;;5080643;28;20836;-71
2023/07/13 04:42:22;;;;;;;3.00;2.70;;;21.10;99.90;;;;;;5080051;28;20197;-70
2023/07/13 04:44:49;;;;;;;3.37;3.07;;;21.30;99.90;;;;;;5056727;28;21002;-69
2023/07/13 04:47:14;;;;;;;3.37;2.73;;;21.00;99.90;;;;;;5059226;28;20466;-70
2023/07/13 04:49:40;;;;;;;5.13;2.90;;;20.60;99.90;;;;;;5043277;28;22315;-70
2023/07/13 04:52:07;;;;;;;4.60;2.90;;;20.50;99.90;;;;;;5043912;28;20212;-69
2023/07/13 04:54:33;;;;;;;4.40;2.70;;;20.20;99.90;;;;;;5078711;28;20179;-68
2023/07/13 04:56:59;;;;;;;2.93;2.73;;;20.30;99.90;;;;;;5082861;28;20527;-69
2023/07/13 04:59:25;;;;;;;5.70;3.10;;;20.30;99.90;;;;;;5065766;28;20411;-69
2023/07/13 05:01:50;;;;;;;3.27;2.67;;;20.10;99.90;;;;;;5084120;28;20684;-70
2023/07/13 05:04:16;;;;;;;4.30;2.70;;;20.30;99.90;;;;;;5085556;28;20175;-69
2023/07/13 05:06:42;;;;;;;3.90;2.83;;;20.70;99.90;;;;;;5080485;28;20175;-69
2023/07/13 05:09:08;;;;;;;2.80;2.37;;;21.10;99.90;;;;;;5076152;28;20431;-70
2023/07/13 05:11:33;;;;;;;2.67;2.20;;;21.30;99.90;;;;;;5078802;28;20201;-69
2023/07/13 05:14:01;;;;;;;5.50;2.77;;;21.60;99.90;;;;;;5084075;28;20174;-71
2023/07/13 05:16:27;;;;;;;3.60;2.37;;;22.30;99.90;;;;;;5083984;28;20197;-69
2023/07/13 05:18:53;;;;;;;3.63;2.20;;;21.90;99.90;;;;;;5064878;28;20443;-69
2023/07/13 05:21:19;;;;;;;6.00;2.87;;;21.90;99.90;;;;;;5082891;28;20434;-68
2023/07/13 05:23:45;;;;;;;9.37;2.27;;;21.90;99.90;;;;;;5081821;28;20468;-69
2023/07/13 05:26:11;;;;;;;2.50;2.30;;;21.90;99.90;;;;;;5077859;28;20169;-69
2023/07/13 05:28:37;;;;;;;3.00;2.20;;;21.90;99.90;;;;;;5068462;28;20309;-69
2023/07/13 05:31:04;;;;;;;4.90;2.63;;;22.50;99.90;;;;;;5067507;28;20467;-69
2023/07/13 05:33:30;;;;;;;4.77;2.50;;;22.70;99.90;;;;;;5062018;28;20416;-69
2023/07/13 05:35:55;;;;;;;6.00;3.10;;;22.40;99.90;;;;;;5062779;28;20455;-69
2023/07/13 05:38:21;;;;;;;4.67;2.20;;;22.50;99.90;;;;;;5081714;28;20241;-68
2023/07/13 05:40:47;;;;;;;5.60;2.70;;;22.20;99.90;;;;;;5081654;28;20583;-69
2023/07/13 05:43:13;;;;;;;5.27;2.70;;;22.60;99.90;;;;;;5083346;28;20582;-68
2023/07/13 05:45:39;;;;;;;4.00;2.37;;;23.60;99.90;;;;;;5077828;28;20268;-67
2023/07/13 05:48:05;;;;;;;7.93;2.60;;;23.50;99.90;;;;;;5049307;28;20513;-69
2023/07/13 05:50:31;;;;;;;3.10;2.20;;;23.80;99.90;;;;;;5076608;28;20185;-69
2023/07/13 05:52:57;;;;;;;3.77;2.27;;;23.40;99.90;;;;;;5080804;28;20212;-69
2023/07/13 05:55:23;;;;;;;4.20;2.00;;;23.20;99.90;;;;;;5083085;28;20538;-67
2023/07/13 05:57:48;;;;;;;5.43;2.30;;;23.80;99.90;;;;;;5072636;28;20174;-69
2023/07/13 06:00:15;;;;;;;4.53;2.10;;;24.00;99.90;;;;;;5064935;28;20701;-69
2023/07/13 06:02:40;;;;;;;2.47;2.00;;;24.20;99.90;;;;;;5053651;28;20191;-69
2023/07/13 06:05:06;;;;;;;2.53;2.20;;;24.40;99.90;;;;;;5070623;28;20947;-70
2023/07/13 06:07:32;;;;;;;2.87;2.20;;;24.40;99.90;;;;;;5080815;28;20246;-69
2023/07/13 06:09:59;;;;;;;3.73;2.00;;;24.50;99.90;;;;;;5085394;28;20738;-69
2023/07/13 06:12:25;;;;;;;4.20;1.93;;;24.70;99.90;;;;;;5082702;28;20703;-68
2023/07/13 06:14:50;;;;;;;2.00;1.73;;;25.10;99.90;;;;;;5080547;28;20404;-68
2023/07/13 06:17:16;;;;;;;4.07;1.90;;;25.80;99.90;;;;;;5074113;28;20542;-68
2023/07/13 06:19:41;;;;;;;3.30;1.93;;;26.00;99.90;;;;;;5071280;28;20177;-69
2023/07/13 06:22:07;;;;;;;3.27;2.13;;;26.20;99.90;;;;;;5064208;28;20213;-68
2023/07/13 06:24:32;;;;;;;2.77;1.90;;;26.90;99.90;;;;;;5082069;28;20238;-69
2023/07/13 06:26:58;;;;;;;3.80;1.80;;;27.40;99.90;;;;;;5072390;28;20181;-68
2023/07/13 06:29:24;;;;;;;5.70;2.00;;;26.70;99.90;;;;;;5053209;28;20592;-69
2023/07/13 06:31:49;;;;;;;2.03;1.83;;;26.20;99.90;;;;;;5076894;28;20197;-70
2023/07/13 06:34:15;;;;;;;2.23;1.53;;;26.70;99.90;;;;;;5082937;28;20196;-69
2023/07/13 06:36:40;;;;;;;3.90;2.40;;;26.90;99.90;;;;;;5063065;28;20243;-69
2023/07/13 06:39:07;;;;;;;2.40;2.20;;;27.80;99.90;;;;;;5075872;28;20173;-69
2023/07/13 06:41:33;;;;;;;3.40;2.40;;;26.90;99.90;;;;;;5058360;28;20236;-70
2023/07/13 06:43:59;;;;;;;2.90;1.90;;;27.20;99.90;;;;;;5068598;28;20906;-68
2023/07/13 06:46:25;;;;;;;4.57;4.00;;;28.10;99.90;;;;;;5079823;28;20536;-68
2023/07/13 06:48:50;;;;;;;12.17;10.97;;;28.50;99.90;;;;;;5064041;28;20175;-72
2023/07/13 06:51:16;;;;;;;2.20;2.00;;;28.10;99.90;;;;;;5078888;28;20255;-67
2023/07/13 06:53:43;;;;;;;7.17;4.33;;;27.90;98.90;;;;;;5077727;28;20265;-68
2023/07/13 06:56:10;;;;;;;1.40;1.30;;;28.50;98.70;;;;;;5077839;28;20695;-69
2023/07/13 06:58:36;;;;;;;3.53;1.47;;;28.80;98.70;;;;;;5075318;28;20436;-68
2023/07/13 07:01:03;;;;;;;2.73;1.53;;;28.80;98.00;;;;;;5072369;28;20456;-68
2023/07/13 07:03:28;;;;;;;3.13;1.40;;;28.20;98.10;;;;;;5071035;28;20482;-68
2023/07/13 07:05:59;;;;;;;3.83;1.63;;;28.00;98.40;;;;;;5081532;28;20414;-68
2023/07/13 07:08:25;;;;;;;2.20;1.20;;;28.10;99.10;;;;;;5088819;28;20180;-67
2023/07/13 07:10:53;;;;;;;5.83;1.70;;;27.60;99.40;;;;;;5083113;28;20416;-68
2023/07/13 07:13:19;;;;;;;2.63;1.90;;;27.90;99.40;;;;;;5066584;28;20883;-67
2023/07/13 07:15:45;;;;;;;3.20;1.57;;;29.10;98.00;;;;;;5064243;28;20533;-69
2023/07/13 07:18:10;;;;;;;3.87;1.70;;;29.10;96.80;;;;;;5063698;28;20530;-68
2023/07/13 07:20:36;;;;;;;2.27;2.00;;;28.40;97.10;;;;;;5075417;28;20178;-68
2023/07/13 07:23:02;;;;;;;2.90;1.23;;;28.50;97.00;;;;;;5081150;28;20182;-69
2023/07/13 07:25:31;;;;;;;2.70;1.57;;;29.40;93.60;;;;;;5090269;28;20547;-68
2023/07/13 07:27:58;;;;;;;4.30;1.57;;;27.60;95.30;;;;;;5079398;28;20185;-70
2023/07/13 07:30:24;;;;;;;1.90;1.53;;;27.40;96.60;;;;;;5077862;28;21212;-68
2023/07/13 07:32:49;;;;;;;2.00;1.20;;;27.50;96.10;;;;;;5068322;28;20540;-68
2023/07/13 07:35:15;;;;;;;1.97;1.40;;;26.70;96.50;;;;;;5080387;28;20248;-69
2023/07/13 07:37:40;;;;;;;2.30;2.10;;;26.20;97.80;;;;;;5087208;28;20548;-69
2023/07/13 07:40:07;;;;;;;2.83;2.63;;;26.60;96.80;;;;;;5081095;28;20170;-69
2023/07/13 07:42:33;;;;;;;2.13;1.40;;;26.00;98.20;;;;;;5081194;28;20668;-68
2023/07/13 07:45:00;;;;;;;2.40;2.00;;;25.00;98.90;;;;;;5088247;28;20477;-67
2023/07/13 07:47:26;;;;;;;5.00;2.07;;;25.40;99.00;;;;;;5077283;28;20683;-68
2023/07/13 07:49:52;;;;;;;3.07;1.57;;;25.00;98.80;;;;;;5075455;28;20424;-68
2023/07/13 07:52:18;;;;;;;2.53;1.50;;;25.70;98.20;;;;;;5067261;28;20210;-68
2023/07/13 07:54:44;;;;;;;1.77;1.37;;;25.50;98.70;;;;;;5080323;28;20941;-67
2023/07/13 07:57:09;;;;;;;2.67;1.70;;;25.80;97.80;;;;;;5065742;28;20292;-68
2023/07/13 07:59:36;;;;;;;2.70;1.90;;;25.40;98.10;;;;;;5060131;28;20206;-69
2023/07/13 08:02:02;;;;;;;7.40;2.00;;;25.20;98.70;;;;;;5062854;28;20203;-68
2023/07/13 08:04:28;;;;;;;4.37;2.47;;;25.20;99.50;;;;;;5056851;28;20810;-68
2023/07/13 08:06:56;;;;;;;2.33;1.53;;;25.20;99.70;;;;;;5061836;28;20203;-68
2023/07/13 08:09:22;;;;;;;2.57;2.33;;;24.80;98.90;;;;;;5083925;28;20171;-67
2023/07/13 08:11:47;;;;;;;3.10;1.77;;;25.20;99.40;;;;;;5082650;28;20546;-68
2023/07/13 08:14:14;;;;;;;1.73;1.60;;;24.80;99.00;;;;;;5083709;28;20485;-67
2023/07/13 08:16:39;;;;;;;2.80;1.50;;;24.70;99.40;;;;;;5081484;28;20198;-68
2023/07/13 08:19:05;;;;;;;2.50;1.80;;;24.60;99.90;;;;;;5065799;28;20414;-69
2023/07/13 08:21:31;;;;;;;2.00;1.80;;;24.70;99.90;;;;;;5082421;28;20204;-68
2023/07/13 08:23:57;;;;;;;2.13;1.80;;;24.50;99.70;;;;;;5073027;28;20437;-68
2023/07/13 08:26:23;;;;;;;3.53;2.00;;;25.10;99.30;;;;;;5065120;28;20447;-68
2023/07/13 08:28:48;;;;;;;2.43;1.90;;;25.50;99.40;;;;;;5068718;28;20188;-69
2023/07/13 08:31:14;;;;;;;12.43;11.13;;;25.80;98.50;;;;;;5058702;28;20228;-68
2023/07/13 08:33:40;;;;;;;2.70;1.73;;;25.80;98.10;;;;;;5057807;28;20565;-69
2023/07/13 08:36:06;;;;;;;4.10;1.63;;;25.80;98.00;;;;;;5072759;28;20470;-68
2023/07/13 08:38:33;;;;;;;4.80;2.10;;;25.60;98.00;;;;;;5081087;28;20420;-68
2023/07/13 08:40:58;;;;;;;4.80;1.70;;;26.10;98.00;;;;;;5083369;28;20404;-68
2023/07/13 08:43:34;;;;;;;1.60;1.50;;;26.00;98.30;;;;;;5064993;28;20469;-72
2023/07/13 08:46:14;;;;;;;2.30;1.70;;;26.60;97.10;;;;;;5069839;28;20183;-69
2023/07/13 08:48:46;;;;;;;4.23;1.97;;;25.90;98.30;;;;;;5068712;28;20440;-69
2023/07/13 08:51:36;;;;;;;3.60;1.90;;;25.50;97.70;;;;;;5083697;28;20443;-69
2023/07/13 08:54:07;;;;;;;2.60;1.53;;;25.70;98.20;;;;;;5072783;28;20412;-70
2023/07/13 08:56:33;;;;;;;5.00;1.97;;;26.30;97.20;;;;;;5070814;28;20521;-69
2023/07/13 08:59:09;;;;;;;2.47;1.43;;;26.20;96.20;;;;;;5068185;28;20435;-69
2023/07/13 09:02:11;;;;;;;2.00;1.40;;;26.40;96.80;;;;;;5075636;28;20186;-68
2023/07/13 09:05:16;;;;;;;2.47;1.30;;;26.90;96.10;;;;;;5074894;28;20408;-67
2023/07/13 09:07:41;;;;;;;1.83;1.00;;;26.70;95.90;;;;;;5075152;28;20432;-68
2023/07/13 09:10:47;;;;;;;4.77;1.67;;;27.40;96.10;;;;;;5073352;28;20454;-68
2023/07/13 09:13:31;;;;;;;2.97;1.50;;;26.50;95.10;;;;;;5061874;28;20234;-69
2023/07/13 09:15:59;;;;;;;7.23;1.37;;;26.80;95.30;;;;;;5085387;28;20452;-68
2023/07/13 09:19:00;;;;;;;3.13;1.50;;;26.20;96.00;;;;;;5075427;28;20534;-70
2023/07/13 09:21:36;;;;;;;5.20;1.63;;;27.40;94.60;;;;;;5028191;28;20470;-69
2023/07/13 09:24:27;;;;;;;2.37;1.30;;;26.80;94.00;;;;;;5062571;28;20435;-69
2023/07/13 09:26:54;;;;;;;2.70;1.43;;;27.60;92.60;;;;;;5081673;28;20530;-69
2023/07/13 09:29:33;;;;;;;1.80;1.20;;;28.20;91.20;;;;;;5082723;28;20418;-69
2023/07/13 09:32:03;;;;;;;3.43;1.77;;;28.00;91.80;;;;;;5072506;28;20696;-69
2023/07/13 09:34:30;;;;;;;4.13;1.67;;;29.10;88.90;;;;;;5073502;28;20416;-70
2023/07/13 09:36:56;;;;;;;2.47;1.30;;;28.40;90.90;;;;;;5076406;28;20866;-69
2023/07/13 09:39:33;;;;;;;4.20;1.43;;;28.20;89.90;;;;;;5083068;28;20399;-68
2023/07/13 09:42:16;;;;;;;3.00;1.33;;;29.60;88.70;;;;;;5065120;28;20199;-69
2023/07/13 09:44:52;;;;;;;6.33;1.90;;;29.50;89.60;;;;;;5065747;28;20428;-68
2023/07/13 09:47:25;;;;;;;2.80;1.50;;;28.80;88.10;;;;;;5068148;28;20770;-69
2023/07/13 09:50:02;;;;;;;2.80;1.60;;;29.10;88.10;;;;;;5079644;28;20413;-68
2023/07/13 09:52:47;;;;;;;3.63;1.60;;;30.00;84.60;;;;;;5055160;28;20501;-69
2023/07/13 09:55:34;;;;;;;1.67;1.57;;;29.40;85.00;;;;;;5071024;28;20427;-69
2023/07/13 09:58:22;;;;;;;2.17;1.70;;;28.80;84.90;;;;;;5078423;28;20506;-69
2023/07/13 10:01:08;;;;;;;2.77;1.70;;;28.20;85.70;;;;;;5083160;28;20426;-69
2023/07/13 10:03:39;;;;;;;2.90;2.17;;;28.20;87.30;;;;;;5085200;28;20411;-71
2023/07/13 10:06:17;;;;;;;4.40;2.10;;;28.50;88.90;;;;;;5076030;28;20411;-70
2023/07/13 10:08:45;;;;;;;3.93;2.20;;;28.90;87.80;;;;;;5081909;28;20441;-70
2023/07/13 10:11:22;;;;;;;2.00;1.80;;;28.60;86.30;;;;;;5076163;28;20786;-70
2023/07/13 10:13:56;;;;;;;2.47;2.17;;;28.80;87.70;;;;;;5080769;28;20448;-69
2023/07/13 10:16:26;;;;;;;4.33;2.90;;;28.60;86.20;;;;;;5081330;28;20477;-69
2023/07/13 10:18:57;;;;;;;5.07;2.00;;;28.40;86.90;;;;;;5062841;28;20731;-69
2023/07/13 10:21:28;;;;;;;3.80;2.70;;;28.30;87.20;;;;;;5084911;28;20493;-69
2023/07/13 10:24:05;;;;;;;2.40;2.20;;;28.80;87.10;;;;;;5084807;28;20408;-69
2023/07/13 10:26:34;;;;;;;3.73;1.93;;;29.10;87.40;;;;;;5085453;28;20960;-70
2023/07/13 10:29:11;;;;;;;3.70;2.60;;;28.00;88.20;;;;;;5075269;28;20522;-69
2023/07/13 10:31:38;;;;;;;3.77;2.53;;;28.10;88.30;;;;;;5085024;28;20437;-68
2023/07/13 10:34:05;;;;;;;3.77;1.93;;;27.80;87.00;;;;;;5084573;28;20529;-68
2023/07/13 10:36:36;;;;;;;2.90;2.37;;;27.60;88.50;;;;;;5085328;28;20454;-69
2023/07/13 10:39:04;;;;;;;3.20;2.30;;;28.10;87.60;;;;;;5075910;28;20431;-69
2023/07/13 10:41:36;;;;;;;2.20;2.00;;;28.70;88.00;;;;;;5081653;28;20511;-70
2023/07/13 10:44:04;;;;;;;5.73;2.83;;;27.60;88.80;;;;;;5080515;28;20415;-69
2023/07/13 10:46:30;;;;;;;4.23;2.20;;;27.30;89.20;;;;;;5087186;28;20411;-69
2023/07/13 10:49:04;;;;;;;4.93;2.00;;;27.10;90.40;;;;;;5077724;28;20419;-69
2023/07/13 10:51:30;;;;;;;2.07;1.87;;;26.70;90.30;;;;;;5089027;28;20948;-69
2023/07/13 10:54:16;;;;;;;2.10;1.90;;;26.70;88.90;;;;;;5081869;28;20503;-68
2023/07/13 10:56:42;;;;;;;4.50;1.90;;;26.70;90.40;;;;;;5074769;28;20454;-69
2023/07/13 10:59:28;;;;;;;2.37;2.17;;;26.70;89.40;;;;;;5068164;28;20420;-69
2023/07/13 11:02:14;;;;;;;2.60;1.90;;;26.50;90.30;;;;;;5084131;28;20445;-69
2023/07/13 11:04:47;;;;;;;2.50;2.30;;;26.30;90.30;;;;;;5084026;28;20486;-69
2023/07/13 11:07:28;;;;;;;5.03;2.30;;;26.20;90.20;;;;;;5081982;28;20455;-68
2023/07/13 11:09:59;;;;;;;1.83;1.60;;;26.30;90.20;;;;;;5084568;28;20765;-68
2023/07/13 11:12:25;;;;;;;3.40;2.90;;;26.50;90.70;;;;;;5078119;28;20417;-68
2023/07/13 11:14:57;;;;;;;3.43;2.07;;;26.60;89.40;;;;;;5063793;28;20459;-68
2023/07/13 11:17:32;;;;;;;3.93;2.20;;;26.50;90.50;;;;;;5053141;28;20507;-68
2023/07/13 11:20:13;;;;;;;2.20;1.90;;;26.30;89.20;;;;;;5081012;28;20426;-68
2023/07/13 11:23:13;;;;;;;2.70;2.50;;;26.20;90.70;;;;;;5082075;28;20458;-68
2023/07/13 11:25:39;;;;;;;5.00;2.60;;;26.90;90.60;;;;;;5085814;28;20413;-68
2023/07/13 11:28:04;;;;;;;4.17;2.67;;;27.30;88.60;;;;;;5080819;28;20414;-67
2023/07/13 11:30:30;;;;;;;2.60;2.40;;;27.00;86.00;;;;;;5054685;28;20430;-68
2023/07/13 11:33:15;;;;;;;2.73;2.53;;;26.50;87.30;;;;;;5079419;28;20198;-67
2023/07/13 11:35:46;;;;;;;4.37;2.57;;;26.30;88.20;;;;;;5080278;28;20222;-69
2023/07/13 11:38:33;;;;;;;1.73;1.60;;;26.20;88.40;;;;;;5085809;28;20426;-65
2023/07/13 11:41:04;;;;;;;3.40;2.13;;;26.60;87.70;;;;;;5070440;28;20409;-70
2023/07/13 11:43:29;;;;;;;2.83;1.43;;;26.90;84.20;;;;;;5084850;28;20406;-68
2023/07/13 11:45:55;;;;;;;3.37;1.77;;;26.70;83.60;;;;;;5080885;28;20841;-69
2023/07/13 11:48:22;;;;;;;2.17;1.97;;;26.70;83.00;;;;;;5075698;28;20191;-68
2023/07/13 11:51:00;;;;;;;3.23;1.90;;;26.90;82.70;;;;;;5076784;28;20176;-69
2023/07/13 11:53:28;;;;;;;5.30;1.90;;;26.40;82.70;;;;;;5086196;28;20532;-69
2023/07/13 11:55:55;;;;;;;3.60;2.30;;;26.50;83.20;;;;;;5078148;28;20519;-68
2023/07/13 11:58:24;;;;;;;2.67;2.40;;;26.30;82.40;;;;;;5079189;28;20453;-70
2023/07/13 12:00:50;;;;;;;3.77;2.10;;;26.20;82.20;;;;;;5081089;28;20499;-68
2023/07/13 12:03:20;;;;;;;4.53;1.83;;;26.40;82.80;;;;;;5078864;28;20428;-69
2023/07/13 12:06:05;;;;;;;2.53;2.33;;;26.80;82.50;;;;;;5084544;28;20867;-69
2023/07/13 12:08:37;;;;;;;3.80;1.70;;;26.70;83.60;;;;;;5082784;28;20405;-69
2023/07/13 12:11:05;;;;;;;2.37;1.83;;;26.60;80.80;;;;;;5077834;28;20415;-68
2023/07/13 12:13:37;;;;;;;3.93;2.30;;;26.70;82.40;;;;;;5079974;28;20786;-68
2023/07/13 12:16:13;;;;;;;5.17;2.70;;;26.50;83.70;;;;;;5074320;28;20483;-69
2023/07/13 12:18:39;;;;;;;3.53;2.50;;;26.70;83.20;;;;;;5063009;28;20413;-68
2023/07/13 12:21:07;;;;;;;3.63;2.10;;;26.80;83.40;;;;;;5063969;28;20435;-68
2023/07/13 12:23:35;;;;;;;2.53;1.80;;;27.00;83.60;;;;;;5073563;28;20411;-67
2023/07/13 12:26:06;;;;;;;3.90;2.30;;;26.90;82.10;;;;;;5061827;28;20405;-70
2023/07/13 12:28:34;;;;;;;2.30;1.80;;;26.50;83.80;;;;;;5076972;28;20408;-68
2023/07/13 12:31:06;;;;;;;5.23;2.20;;;26.50;84.40;;;;;;5070572;28;20407;-69
2023/07/13 12:33:33;;;;;;;4.10;2.07;;;26.50;85.30;;;;;;5065518;28;20410;-69
2023/07/13 12:36:02;;;;;;;2.90;1.83;;;26.40;84.40;;;;;;5075329;28;21037;-69
2023/07/13 12:38:29;;;;;;;3.60;2.10;;;26.60;86.40;;;;;;5079095;28;20409;-69
2023/07/13 12:40:55;;;;;;;3.50;2.30;;;26.70;83.90;;;;;;5082653;28;20899;-68
2023/07/13 12:43:22;;;;;;;2.70;1.97;;;26.60;83.00;;;;;;5082011;28;20500;-69
2023/07/13 12:45:58;;;;;;;3.43;1.87;;;26.80;82.90;;;;;;5084127;28;20212;-68
2023/07/13 12:48:24;;;;;;;7.93;1.83;;;26.90;81.10;;;;;;5078570;28;20443;-69
2023/07/13 12:50:50;;;;;;;5.33;2.10;;;27.10;79.90;;;;;;5063803;28;20503;-69
2023/07/13 12:53:21;;;;;;;5.23;1.90;;;26.50;79.00;;;;;;5082921;28;20776;-67